sensor_id;sensor_type;location;lat;lon;timestamp;temperature;humidity
31799;DHT22;18374;51.136;3.502;2023-03-01T00:01:43;-0.10;99.90
31799;DHT22;18374;51.136;3.502;2023-03-01T00:04:11;-0.10;99.90
31799;DHT22;18374;51.136;3.502;2023-03-01T00:06:39;-0.10;99.90
31799;DHT22;18374;51.136;3.502;2023-03-01T00:09:06;-0.10;99.90
31799;DHT22;18374;51.136;3.502;2023-03-01T00:11:34;-0.10;99.90
31799;DHT22;18374;51.136;3.502;2023-03-01T00:14:03;-0.10;99.90
31799;DHT22;18374;51.136;3.502;2023-03-01T00:16:36;-0.10;99.90
31799;DHT22;18374;51.136;3.502;2023-03-01T00:19:12;-0.10;99.90
31799;DHT22;18374;51.136;3.502;2023-03-01T00:21:41;-0.10;99.90
31799;DHT22;18374;51.136;3.502;2023-03-01T00:24:09;-0.10;99.90
31799;DHT22;18374;51.136;3.502;2023-03-01T00:26:37;-0.20;99.90
31799;DHT22;18374;51.136;3.502;2023-03-01T00:29:05;-0.20;99.90
31799;DHT22;18374;51.136;3.502;2023-03-01T00:31:34;-0.20;99.90
31799;DHT22;18374;51.136;3.502;2023-03-01T00:34:04;-0.10;99.90
31799;DHT22;18374;51.136;3.502;2023-03-01T00:36:34;-0.10;99.90
31799;DHT22;18374;51.136;3.502;2023-03-01T00:39:05;-0.10;99.90
31799;DHT22;18374;51.136;3.502;2023-03-01T00:41:37;-0.10;99.90
31799;DHT22;18374;51.136;3.502;2023-03-01T00:44:05;-0.10;99.90
31799;DHT22;18374;51.136;3.502;2023-03-01T00:46:35;-0.10;99.90
31799;DHT22;18374;51.136;3.502;2023-03-01T00:49:02;-0.20;99.90
31799;DHT22;18374;51.136;3.502;2023-03-01T00:51:32;-0.20;99.90
31799;DHT22;18374;51.136;3.502;2023-03-01T00:54:01;-0.20;99.90
31799;DHT22;18374;51.136;3.502;2023-03-01T00:56:30;-0.20;99.90
31799;DHT22;18374;51.136;3.502;2023-03-01T00:58:59;-0.30;99.90
31799;DHT22;18374;51.136;3.502;2023-03-01T01:01:29;-0.30;99.90
31799;DHT22;18374;51.136;3.502;2023-03-01T01:04:03;-0.40;99.90
31799;DHT22;18374;51.136;3.502;2023-03-01T01:06:37;-0.40;99.90
31799;DHT22;18374;51.136;3.502;2023-03-01T01:09:07;-0.40;99.90
31799;DHT22;18374;51.136;3.502;2023-03-01T01:11:35;-0.40;99.90
31799;DHT22;18374;51.136;3.502;2023-03-01T01:14:04;-0.40;99.90
31799;DHT22;18374;51.136;3.502;2023-03-01T01:16:32;-0.40;99.90
31799;DHT22;18374;51.136;3.502;2023-03-01T01:19:01;-0.40;99.90
31799;DHT22;18374;51.136;3.502;2023-03-01T01:21:29;-0.40;99.90
31799;DHT22;18374;51.136;3.502;2023-03-01T01:23:58;-0.40;99.90
31799;DHT22;18374;51.136;3.502;2023-03-01T01:26:28;-0.40;99.90
31799;DHT22;18374;51.136;3.502;2023-03-01T01:28:59;-0.50;99.90
31799;DHT22;18374;51.136;3.502;2023-03-01T01:31:28;-0.50;99.90
31799;DHT22;18374;51.136;3.502;2023-03-01T01:33:58;-0.50;99.90
31799;DHT22;18374;51.136;3.502;2023-03-01T01:36:28;-0.50;99.90
31799;DHT22;18374;51.136;3.502;2023-03-01T01:38:56;-0.60;99.90
31799;DHT22;18374;51.136;3.502;2023-03-01T01:41:26;-0.60;99.90
31799;DHT22;18374;51.136;3.502;2023-03-01T01:49:40;-0.60;99.90
31799;DHT22;18374;51.136;3.502;2023-03-01T01:52:14;-0.60;99.90
31799;DHT22;18374;51.136;3.502;2023-03-01T01:57:19;-0.70;99.90
31799;DHT22;18374;51.136;3.502;2023-03-01T01:59:54;-0.60;99.90
31799;DHT22;18374;51.136;3.502;2023-03-01T02:02:24;-0.70;99.90
31799;DHT22;18374;51.136;3.502;2023-03-01T02:05:01;-0.60;99.90
31799;DHT22;18374;51.136;3.502;2023-03-01T02:07:39;-0.60;99.90
31799;DHT22;18374;51.136;3.502;2023-03-01T02:10:08;-0.70;99.90
31799;DHT22;18374;51.136;3.502;2023-03-01T02:12:36;-0.70;99.90
31799;DHT22;18374;51.136;3.502;2023-03-01T02:15:05;-0.70;99.90
31799;DHT22;18374;51.136;3.502;2023-03-01T02:17:34;-0.70;99.90
31799;DHT22;18374;51.136;3.502;2023-03-01T02:20:23;-0.70;99.90
31799;DHT22;18374;51.136;3.502;2023-03-01T02:22:56;-0.70;99.90
31799;DHT22;18374;51.136;3.502;2023-03-01T02:25:33;-0.70;99.90
31799;DHT22;18374;51.136;3.502;2023-03-01T02:28:19;-0.80;99.90
31799;DHT22;18374;51.136;3.502;2023-03-01T02:30:53;-0.70;99.90
31799;DHT22;18374;51.136;3.502;2023-03-01T02:33:40;-0.80;99.90
31799;DHT22;18374;51.136;3.502;2023-03-01T02:36:14;-0.70;99.90
31799;DHT22;18374;51.136;3.502;2023-03-01T02:38:44;-0.70;99.90
31799;DHT22;18374;51.136;3.502;2023-03-01T02:41:15;-0.80;99.90
31799;DHT22;18374;51.136;3.502;2023-03-01T02:43:44;-0.70;99.90
31799;DHT22;18374;51.136;3.502;2023-03-01T02:46:21;-0.80;99.90
31799;DHT22;18374;51.136;3.502;2023-03-01T02:48:54;-0.80;99.90
31799;DHT22;18374;51.136;3.502;2023-03-01T02:51:34;-0.80;99.90
31799;DHT22;18374;51.136;3.502;2023-03-01T02:57:43;-0.90;99.90
31799;DHT22;18374;51.136;3.502;2023-03-01T03:00:19;-0.90;99.90
31799;DHT22;18374;51.136;3.502;2023-03-01T03:02:54;-0.90;99.90
31799;DHT22;18374;51.136;3.502;2023-03-01T03:05:28;-1.00;99.90
31799;DHT22;18374;51.136;3.502;2023-03-01T03:08:00;-0.90;99.90
31799;DHT22;18374;51.136;3.502;2023-03-01T03:10:37;-0.90;99.90
31799;DHT22;18374;51.136;3.502;2023-03-01T03:13:10;-1.00;99.90
31799;DHT22;18374;51.136;3.502;2023-03-01T03:15:40;-1.00;99.90
31799;DHT22;18374;51.136;3.502;2023-03-01T03:18:14;-1.00;99.90
31799;DHT22;18374;51.136;3.502;2023-03-01T03:20:44;-1.00;99.90
31799;DHT22;18374;51.136;3.502;2023-03-01T03:23:12;-1.00;99.90
31799;DHT22;18374;51.136;3.502;2023-03-01T03:25:40;-1.00;99.90
31799;DHT22;18374;51.136;3.502;2023-03-01T03:28:08;-1.00;99.90
31799;DHT22;18374;51.136;3.502;2023-03-01T03:30:40;-1.10;99.90
31799;DHT22;18374;51.136;3.502;2023-03-01T03:33:10;-1.10;99.90
31799;DHT22;18374;51.136;3.502;2023-03-01T03:35:45;-1.10;99.90
31799;DHT22;18374;51.136;3.502;2023-03-01T03:38:18;-1.00;99.90
31799;DHT22;18374;51.136;3.502;2023-03-01T03:40:52;-1.10;99.90
31799;DHT22;18374;51.136;3.502;2023-03-01T03:43:30;-1.00;99.90
31799;DHT22;18374;51.136;3.502;2023-03-01T03:45:59;-1.00;99.90
31799;DHT22;18374;51.136;3.502;2023-03-01T03:48:27;-1.00;99.90
31799;DHT22;18374;51.136;3.502;2023-03-01T03:50:56;-1.10;99.90
31799;DHT22;18374;51.136;3.502;2023-03-01T03:53:25;-1.10;99.90
31799;DHT22;18374;51.136;3.502;2023-03-01T03:55:55;-1.00;99.90
31799;DHT22;18374;51.136;3.502;2023-03-01T03:58:24;-1.10;99.90
31799;DHT22;18374;51.136;3.502;2023-03-01T04:00:55;-1.10;99.90
31799;DHT22;18374;51.136;3.502;2023-03-01T04:03:25;-1.10;99.90
31799;DHT22;18374;51.136;3.502;2023-03-01T04:05:54;-1.20;99.90
31799;DHT22;18374;51.136;3.502;2023-03-01T04:08:25;-1.10;99.90
31799;DHT22;18374;51.136;3.502;2023-03-01T04:10:59;-1.20;99.90
31799;DHT22;18374;51.136;3.502;2023-03-01T04:13:48;-1.20;99.90
31799;DHT22;18374;51.136;3.502;2023-03-01T04:16:16;-1.30;99.90
31799;DHT22;18374;51.136;3.502;2023-03-01T04:18:45;-1.20;99.90
31799;DHT22;18374;51.136;3.502;2023-03-01T04:21:13;-1.20;99.90
31799;DHT22;18374;51.136;3.502;2023-03-01T04:23:41;-1.20;99.90
31799;DHT22;18374;51.136;3.502;2023-03-01T04:26:09;-1.20;99.90
31799;DHT22;18374;51.136;3.502;2023-03-01T04:28:39;-1.20;99.90
31799;DHT22;18374;51.136;3.502;2023-03-01T04:31:11;-1.30;99.90
31799;DHT22;18374;51.136;3.502;2023-03-01T04:33:54;-1.30;99.90
31799;DHT22;18374;51.136;3.502;2023-03-01T04:36:25;-1.30;99.90
31799;DHT22;18374;51.136;3.502;2023-03-01T04:38:55;-1.40;99.90
31799;DHT22;18374;51.136;3.502;2023-03-01T04:41:24;-1.40;99.90
31799;DHT22;18374;51.136;3.502;2023-03-01T04:43:52;-1.40;99.90
31799;DHT22;18374;51.136;3.502;2023-03-01T04:46:21;-1.40;99.90
31799;DHT22;18374;51.136;3.502;2023-03-01T04:48:49;-1.50;99.90
31799;DHT22;18374;51.136;3.502;2023-03-01T04:51:17;-1.50;99.90
31799;DHT22;18374;51.136;3.502;2023-03-01T04:53:46;-1.50;99.90
31799;DHT22;18374;51.136;3.502;2023-03-01T04:56:14;-1.50;99.90
31799;DHT22;18374;51.136;3.502;2023-03-01T04:58:42;-1.50;99.90
31799;DHT22;18374;51.136;3.502;2023-03-01T05:01:12;-1.50;99.90
31799;DHT22;18374;51.136;3.502;2023-03-01T05:03:46;-1.50;99.90
31799;DHT22;18374;51.136;3.502;2023-03-01T05:06:17;-1.50;99.90
31799;DHT22;18374;51.136;3.502;2023-03-01T05:08:45;-1.50;99.90
31799;DHT22;18374;51.136;3.502;2023-03-01T05:11:13;-1.40;99.90
31799;DHT22;18374;51.136;3.502;2023-03-01T05:13:41;-1.40;99.90
31799;DHT22;18374;51.136;3.502;2023-03-01T05:16:10;-1.50;99.90
31799;DHT22;18374;51.136;3.502;2023-03-01T05:18:40;-1.50;99.90
31799;DHT22;18374;51.136;3.502;2023-03-01T05:21:10;-1.50;99.90
31799;DHT22;18374;51.136;3.502;2023-03-01T05:23:40;-1.60;99.90
31799;DHT22;18374;51.136;3.502;2023-03-01T05:26:08;-1.60;99.90
31799;DHT22;18374;51.136;3.502;2023-03-01T05:28:54;-1.60;99.90
31799;DHT22;18374;51.136;3.502;2023-03-01T05:31:26;-1.60;99.90
31799;DHT22;18374;51.136;3.502;2023-03-01T05:33:54;-1.60;99.90
31799;DHT22;18374;51.136;3.502;2023-03-01T05:36:22;-1.70;99.90
31799;DHT22;18374;51.136;3.502;2023-03-01T05:38:50;-1.70;99.90
31799;DHT22;18374;51.136;3.502;2023-03-01T05:41:18;-1.60;99.90
31799;DHT22;18374;51.136;3.502;2023-03-01T05:43:45;-1.50;99.90
31799;DHT22;18374;51.136;3.502;2023-03-01T05:46:13;-1.60;99.90
31799;DHT22;18374;51.136;3.502;2023-03-01T05:48:42;-1.60;99.90
31799;DHT22;18374;51.136;3.502;2023-03-01T05:51:11;-1.50;99.90
31799;DHT22;18374;51.136;3.502;2023-03-01T05:53:39;-1.60;99.90
31799;DHT22;18374;51.136;3.502;2023-03-01T05:56:07;-1.60;99.90
31799;DHT22;18374;51.136;3.502;2023-03-01T05:58:35;-1.60;99.90
31799;DHT22;18374;51.136;3.502;2023-03-01T06:01:02;-1.60;99.90
31799;DHT22;18374;51.136;3.502;2023-03-01T06:03:30;-1.70;99.90
31799;DHT22;18374;51.136;3.502;2023-03-01T06:05:58;-1.70;99.90
31799;DHT22;18374;51.136;3.502;2023-03-01T06:08:26;-1.60;99.90
31799;DHT22;18374;51.136;3.502;2023-03-01T06:10:54;-1.70;99.90
31799;DHT22;18374;51.136;3.502;2023-03-01T06:13:23;-1.70;99.90
31799;DHT22;18374;51.136;3.502;2023-03-01T06:15:51;-1.80;99.90
31799;DHT22;18374;51.136;3.502;2023-03-01T06:18:19;-1.80;99.90
31799;DHT22;18374;51.136;3.502;2023-03-01T06:20:53;-1.80;99.90
31799;DHT22;18374;51.136;3.502;2023-03-01T06:23:23;-1.90;99.90
31799;DHT22;18374;51.136;3.502;2023-03-01T06:25:51;-1.80;99.90
31799;DHT22;18374;51.136;3.502;2023-03-01T06:28:19;-1.80;99.90
31799;DHT22;18374;51.136;3.502;2023-03-01T06:30:47;-1.80;99.90
31799;DHT22;18374;51.136;3.502;2023-03-01T06:33:15;-1.80;99.90
31799;DHT22;18374;51.136;3.502;2023-03-01T06:35:43;-1.80;99.90
31799;DHT22;18374;51.136;3.502;2023-03-01T06:38:10;-1.80;99.90
31799;DHT22;18374;51.136;3.502;2023-03-01T06:40:38;-1.80;99.90
31799;DHT22;18374;51.136;3.502;2023-03-01T06:43:06;-1.80;99.90
31799;DHT22;18374;51.136;3.502;2023-03-01T06:45:34;-1.80;99.90
31799;DHT22;18374;51.136;3.502;2023-03-01T06:48:07;-1.70;99.90
31799;DHT22;18374;51.136;3.502;2023-03-01T06:50:35;-1.70;99.90
31799;DHT22;18374;51.136;3.502;2023-03-01T06:53:04;-1.70;99.90
31799;DHT22;18374;51.136;3.502;2023-03-01T06:55:32;-1.70;99.90
31799;DHT22;18374;51.136;3.502;2023-03-01T06:58:01;-1.60;99.90
31799;DHT22;18374;51.136;3.502;2023-03-01T07:00:29;-1.60;99.90
31799;DHT22;18374;51.136;3.502;2023-03-01T07:03:01;-1.70;99.90
31799;DHT22;18374;51.136;3.502;2023-03-01T07:05:30;-1.70;99.90
31799;DHT22;18374;51.136;3.502;2023-03-01T07:07:58;-1.70;99.90
31799;DHT22;18374;51.136;3.502;2023-03-01T07:10:26;-1.80;99.90
31799;DHT22;18374;51.136;3.502;2023-03-01T07:12:55;-1.70;99.90
31799;DHT22;18374;51.136;3.502;2023-03-01T07:15:25;-1.70;99.90
31799;DHT22;18374;51.136;3.502;2023-03-01T07:17:54;-1.70;99.90
31799;DHT22;18374;51.136;3.502;2023-03-01T07:20:21;-1.70;99.90
31799;DHT22;18374;51.136;3.502;2023-03-01T07:22:53;-1.60;99.90
31799;DHT22;18374;51.136;3.502;2023-03-01T07:25:22;-1.60;99.90
31799;DHT22;18374;51.136;3.502;2023-03-01T07:27:51;-1.60;99.90
31799;DHT22;18374;51.136;3.502;2023-03-01T07:30:20;-1.50;99.90
31799;DHT22;18374;51.136;3.502;2023-03-01T07:32:48;-1.50;99.90
31799;DHT22;18374;51.136;3.502;2023-03-01T07:35:17;-1.40;99.90
31799;DHT22;18374;51.136;3.502;2023-03-01T07:37:44;-1.30;99.90
31799;DHT22;18374;51.136;3.502;2023-03-01T07:40:12;-1.30;99.90
31799;DHT22;18374;51.136;3.502;2023-03-01T07:42:40;-1.20;99.90
31799;DHT22;18374;51.136;3.502;2023-03-01T07:45:09;-1.10;99.90
31799;DHT22;18374;51.136;3.502;2023-03-01T07:47:37;-1.10;99.90
31799;DHT22;18374;51.136;3.502;2023-03-01T07:50:05;-1.00;99.90
31799;DHT22;18374;51.136;3.502;2023-03-01T07:52:33;-1.00;99.90
31799;DHT22;18374;51.136;3.502;2023-03-01T07:55:01;-0.90;99.90
31799;DHT22;18374;51.136;3.502;2023-03-01T07:57:29;-0.80;99.90
31799;DHT22;18374;51.136;3.502;2023-03-01T07:59:56;-0.70;99.90
31799;DHT22;18374;51.136;3.502;2023-03-01T08:02:24;-0.60;99.90
31799;DHT22;18374;51.136;3.502;2023-03-01T08:04:52;-0.60;99.90
31799;DHT22;18374;51.136;3.502;2023-03-01T08:07:19;-0.50;99.90
31799;DHT22;18374;51.136;3.502;2023-03-01T08:09:47;-0.30;99.90
31799;DHT22;18374;51.136;3.502;2023-03-01T08:12:15;-0.20;99.90
31799;DHT22;18374;51.136;3.502;2023-03-01T08:14:44;-0.10;99.90
31799;DHT22;18374;51.136;3.502;2023-03-01T08:17:14;0.10;99.90
31799;DHT22;18374;51.136;3.502;2023-03-01T08:19:42;0.10;99.90
31799;DHT22;18374;51.136;3.502;2023-03-01T08:22:10;0.30;99.90
31799;DHT22;18374;51.136;3.502;2023-03-01T08:24:38;0.40;99.90
31799;DHT22;18374;51.136;3.502;2023-03-01T08:27:06;0.60;99.90
31799;DHT22;18374;51.136;3.502;2023-03-01T08:29:33;0.70;99.90
31799;DHT22;18374;51.136;3.502;2023-03-01T08:32:01;0.80;99.90
31799;DHT22;18374;51.136;3.502;2023-03-01T08:34:29;1.10;99.90
31799;DHT22;18374;51.136;3.502;2023-03-01T08:36:58;1.20;99.90
31799;DHT22;18374;51.136;3.502;2023-03-01T08:39:26;1.40;99.90
31799;DHT22;18374;51.136;3.502;2023-03-01T08:41:53;1.50;99.90
31799;DHT22;18374;51.136;3.502;2023-03-01T08:44:21;1.70;99.90
31799;DHT22;18374;51.136;3.502;2023-03-01T08:46:50;1.90;99.90
31799;DHT22;18374;51.136;3.502;2023-03-01T08:49:19;2.10;99.90
31799;DHT22;18374;51.136;3.502;2023-03-01T08:51:47;2.20;99.90
31799;DHT22;18374;51.136;3.502;2023-03-01T08:54:18;2.40;99.90
31799;DHT22;18374;51.136;3.502;2023-03-01T08:56:47;2.50;99.90
31799;DHT22;18374;51.136;3.502;2023-03-01T08:59:16;2.70;99.90
31799;DHT22;18374;51.136;3.502;2023-03-01T09:01:44;2.80;99.90
31799;DHT22;18374;51.136;3.502;2023-03-01T09:04:14;3.00;99.90
31799;DHT22;18374;51.136;3.502;2023-03-01T09:06:42;3.20;99.90
31799;DHT22;18374;51.136;3.502;2023-03-01T09:09:15;3.30;99.90
31799;DHT22;18374;51.136;3.502;2023-03-01T09:11:44;3.40;99.90
31799;DHT22;18374;51.136;3.502;2023-03-01T09:14:17;3.60;99.90
31799;DHT22;18374;51.136;3.502;2023-03-01T09:16:45;3.60;99.90
31799;DHT22;18374;51.136;3.502;2023-03-01T09:19:13;3.70;99.90
31799;DHT22;18374;51.136;3.502;2023-03-01T09:21:42;3.80;99.90
31799;DHT22;18374;51.136;3.502;2023-03-01T09:24:21;4.00;99.90
31799;DHT22;18374;51.136;3.502;2023-03-01T09:26:53;4.30;99.90
31799;DHT22;18374;51.136;3.502;2023-03-01T09:29:22;4.40;99.90
31799;DHT22;18374;51.136;3.502;2023-03-01T09:31:50;4.50;99.90
31799;DHT22;18374;51.136;3.502;2023-03-01T09:34:18;4.50;99.90
31799;DHT22;18374;51.136;3.502;2023-03-01T09:36:50;4.60;99.90
31799;DHT22;18374;51.136;3.502;2023-03-01T09:39:18;4.60;99.90
31799;DHT22;18374;51.136;3.502;2023-03-01T09:42:00;4.80;99.90
31799;DHT22;18374;51.136;3.502;2023-03-01T09:46:59;4.80;99.90
31799;DHT22;18374;51.136;3.502;2023-03-01T09:49:30;4.80;99.90
31799;DHT22;18374;51.136;3.502;2023-03-01T09:52:21;4.70;99.90
31799;DHT22;18374;51.136;3.502;2023-03-01T09:54:55;4.70;99.90
31799;DHT22;18374;51.136;3.502;2023-03-01T10:11:28;5.20;99.90
31799;DHT22;18374;51.136;3.502;2023-03-01T10:17:06;5.30;99.90
31799;DHT22;18374;51.136;3.502;2023-03-01T10:19:38;5.50;99.90
31799;DHT22;18374;51.136;3.502;2023-03-01T10:22:16;5.60;99.90
31799;DHT22;18374;51.136;3.502;2023-03-01T10:24:45;5.60;99.90
31799;DHT22;18374;51.136;3.502;2023-03-01T10:32:44;5.80;99.90
31799;DHT22;18374;51.136;3.502;2023-03-01T10:35:24;5.80;99.90
31799;DHT22;18374;51.136;3.502;2023-03-01T10:40:49;6.20;99.90
31799;DHT22;18374;51.136;3.502;2023-03-01T10:43:19;6.40;99.90
31799;DHT22;18374;51.136;3.502;2023-03-01T10:45:48;6.50;99.90
31799;DHT22;18374;51.136;3.502;2023-03-01T10:51:05;6.50;99.90
31799;DHT22;18374;51.136;3.502;2023-03-01T10:53:38;6.70;99.90
31799;DHT22;18374;51.136;3.502;2023-03-01T10:56:13;6.80;99.90
31799;DHT22;18374;51.136;3.502;2023-03-01T10:59:00;6.50;99.60
31799;DHT22;18374;51.136;3.502;2023-03-01T11:01:34;6.40;99.90
31799;DHT22;18374;51.136;3.502;2023-03-01T11:06:36;6.90;99.90
31799;DHT22;18374;51.136;3.502;2023-03-01T11:09:33;7.10;99.90
31799;DHT22;18374;51.136;3.502;2023-03-01T11:12:14;7.20;99.90
31799;DHT22;18374;51.136;3.502;2023-03-01T11:14:53;7.00;99.90
31799;DHT22;18374;51.136;3.502;2023-03-01T11:17:28;6.80;99.90
31799;DHT22;18374;51.136;3.502;2023-03-01T11:20:05;6.70;99.90
31799;DHT22;18374;51.136;3.502;2023-03-01T11:25:23;6.90;99.90
31799;DHT22;18374;51.136;3.502;2023-03-01T11:27:54;7.30;99.90
31799;DHT22;18374;51.136;3.502;2023-03-01T11:33:48;7.60;99.10
31799;DHT22;18374;51.136;3.502;2023-03-01T11:36:35;7.60;99.50
31799;DHT22;18374;51.136;3.502;2023-03-01T11:39:54;7.50;99.80
31799;DHT22;18374;51.136;3.502;2023-03-01T11:45:25;7.20;99.90
31799;DHT22;18374;51.136;3.502;2023-03-01T11:57:18;7.30;98.90
31799;DHT22;18374;51.136;3.502;2023-03-01T12:00:15;7.20;98.70
31799;DHT22;18374;51.136;3.502;2023-03-01T12:05:57;7.40;98.70
31799;DHT22;18374;51.136;3.502;2023-03-01T12:29:44;6.80;99.90
31799;DHT22;18374;51.136;3.502;2023-03-01T12:48:02;6.80;99.90
31799;DHT22;18374;51.136;3.502;2023-03-01T12:50:50;7.00;99.90
31799;DHT22;18374;51.136;3.502;2023-03-01T12:53:26;7.00;99.90
31799;DHT22;18374;51.136;3.502;2023-03-01T12:56:17;6.80;99.50
31799;DHT22;18374;51.136;3.502;2023-03-01T13:10:51;7.00;99.50
31799;DHT22;18374;51.136;3.502;2023-03-01T13:13:25;7.00;99.30
31799;DHT22;18374;51.136;3.502;2023-03-01T13:15:55;7.00;99.70
31799;DHT22;18374;51.136;3.502;2023-03-01T13:20:57;6.90;99.90
31799;DHT22;18374;51.136;3.502;2023-03-01T13:23:29;7.00;99.20
31799;DHT22;18374;51.136;3.502;2023-03-01T13:28:36;7.00;99.90
31799;DHT22;18374;51.136;3.502;2023-03-01T13:31:07;7.00;99.80
31799;DHT22;18374;51.136;3.502;2023-03-01T13:33:51;7.10;98.90
31799;DHT22;18374;51.136;3.502;2023-03-01T13:41:56;7.60;98.80
31799;DHT22;18374;51.136;3.502;2023-03-01T13:44:37;7.50;98.90
31799;DHT22;18374;51.136;3.502;2023-03-01T13:49:48;7.30;98.70
31799;DHT22;18374;51.136;3.502;2023-03-01T13:52:32;7.60;98.90
31799;DHT22;18374;51.136;3.502;2023-03-01T14:01:03;7.30;98.70
31799;DHT22;18374;51.136;3.502;2023-03-01T14:03:39;7.30;99.40
31799;DHT22;18374;51.136;3.502;2023-03-01T14:06:14;7.30;99.00
31799;DHT22;18374;51.136;3.502;2023-03-01T14:08:50;7.60;98.90
31799;DHT22;18374;51.136;3.502;2023-03-01T14:20:27;8.50;97.70
31799;DHT22;18374;51.136;3.502;2023-03-01T14:23:02;8.10;97.20
31799;DHT22;18374;51.136;3.502;2023-03-01T14:25:57;8.00;96.70
31799;DHT22;18374;51.136;3.502;2023-03-01T14:28:32;7.90;97.10
31799;DHT22;18374;51.136;3.502;2023-03-01T14:31:31;7.70;97.30
31799;DHT22;18374;51.136;3.502;2023-03-01T14:34:23;7.90;97.00
31799;DHT22;18374;51.136;3.502;2023-03-01T14:36:51;7.80;97.30
31799;DHT22;18374;51.136;3.502;2023-03-01T14:39:23;8.10;98.30
31799;DHT22;18374;51.136;3.502;2023-03-01T14:41:53;8.00;97.50
31799;DHT22;18374;51.136;3.502;2023-03-01T14:44:23;7.70;98.30
31799;DHT22;18374;51.136;3.502;2023-03-01T14:46:55;7.70;99.30
31799;DHT22;18374;51.136;3.502;2023-03-01T14:49:28;7.80;99.10
31799;DHT22;18374;51.136;3.502;2023-03-01T14:52:00;7.70;98.70
31799;DHT22;18374;51.136;3.502;2023-03-01T14:54:42;7.60;98.80
31799;DHT22;18374;51.136;3.502;2023-03-01T14:57:20;7.70;99.00
31799;DHT22;18374;51.136;3.502;2023-03-01T15:00:24;7.20;98.30
31799;DHT22;18374;51.136;3.502;2023-03-01T15:02:56;7.00;98.50
31799;DHT22;18374;51.136;3.502;2023-03-01T15:05:33;6.90;98.90
31799;DHT22;18374;51.136;3.502;2023-03-01T15:08:02;6.80;99.10
31799;DHT22;18374;51.136;3.502;2023-03-01T15:10:34;6.80;99.10
31799;DHT22;18374;51.136;3.502;2023-03-01T15:13:14;6.80;99.20
31799;DHT22;18374;51.136;3.502;2023-03-01T15:15:53;6.90;99.10
31799;DHT22;18374;51.136;3.502;2023-03-01T15:18:42;7.00;98.60
31799;DHT22;18374;51.136;3.502;2023-03-01T15:24:20;6.90;98.80
31799;DHT22;18374;51.136;3.502;2023-03-01T15:26:59;6.80;99.00
31799;DHT22;18374;51.136;3.502;2023-03-01T15:29:34;6.80;99.60
31799;DHT22;18374;51.136;3.502;2023-03-01T15:32:27;6.70;99.60
31799;DHT22;18374;51.136;3.502;2023-03-01T15:34:59;6.60;99.90
31799;DHT22;18374;51.136;3.502;2023-03-01T15:37:48;6.50;99.50
31799;DHT22;18374;51.136;3.502;2023-03-01T15:40:28;6.50;99.90
31799;DHT22;18374;51.136;3.502;2023-03-01T15:43:05;6.60;99.70
31799;DHT22;18374;51.136;3.502;2023-03-01T15:45:33;6.50;99.90
31799;DHT22;18374;51.136;3.502;2023-03-01T15:48:03;6.50;99.60
31799;DHT22;18374;51.136;3.502;2023-03-01T15:50:34;6.50;99.40
31799;DHT22;18374;51.136;3.502;2023-03-01T15:53:11;6.60;99.70
31799;DHT22;18374;51.136;3.502;2023-03-01T15:55:41;6.70;99.90
31799;DHT22;18374;51.136;3.502;2023-03-01T15:58:10;6.60;99.90
31799;DHT22;18374;51.136;3.502;2023-03-01T16:00:40;6.60;99.90
31799;DHT22;18374;51.136;3.502;2023-03-01T16:03:25;6.40;99.90
31799;DHT22;18374;51.136;3.502;2023-03-01T16:05:53;6.30;99.90
31799;DHT22;18374;51.136;3.502;2023-03-01T16:08:21;6.10;99.90
31799;DHT22;18374;51.136;3.502;2023-03-01T16:10:49;6.10;99.90
31799;DHT22;18374;51.136;3.502;2023-03-01T16:13:18;6.00;99.90
31799;DHT22;18374;51.136;3.502;2023-03-01T16:15:46;6.00;99.90
31799;DHT22;18374;51.136;3.502;2023-03-01T16:18:14;6.00;99.90
31799;DHT22;18374;51.136;3.502;2023-03-01T16:20:42;6.00;99.90
31799;DHT22;18374;51.136;3.502;2023-03-01T16:23:11;6.00;99.90
31799;DHT22;18374;51.136;3.502;2023-03-01T16:25:38;5.90;99.90
31799;DHT22;18374;51.136;3.502;2023-03-01T16:28:07;5.90;99.90
31799;DHT22;18374;51.136;3.502;2023-03-01T16:30:39;5.90;99.90
31799;DHT22;18374;51.136;3.502;2023-03-01T16:33:07;5.80;99.90
31799;DHT22;18374;51.136;3.502;2023-03-01T16:35:53;5.80;99.90
31799;DHT22;18374;51.136;3.502;2023-03-01T16:38:21;5.80;99.90
31799;DHT22;18374;51.136;3.502;2023-03-01T16:40:50;5.70;99.90
31799;DHT22;18374;51.136;3.502;2023-03-01T16:43:18;5.70;99.90
31799;DHT22;18374;51.136;3.502;2023-03-01T16:45:46;5.60;99.90
31799;DHT22;18374;51.136;3.502;2023-03-01T16:48:14;5.60;99.90
31799;DHT22;18374;51.136;3.502;2023-03-01T16:50:42;5.50;99.90
31799;DHT22;18374;51.136;3.502;2023-03-01T16:53:10;5.50;99.90
31799;DHT22;18374;51.136;3.502;2023-03-01T16:55:38;5.40;99.90
31799;DHT22;18374;51.136;3.502;2023-03-01T16:58:12;5.40;99.90
31799;DHT22;18374;51.136;3.502;2023-03-01T17:00:40;5.30;99.90
31799;DHT22;18374;51.136;3.502;2023-03-01T17:03:08;5.30;99.90
31799;DHT22;18374;51.136;3.502;2023-03-01T17:05:35;5.20;99.90
31799;DHT22;18374;51.136;3.502;2023-03-01T17:08:07;5.10;99.90
31799;DHT22;18374;51.136;3.502;2023-03-01T17:10:35;5.10;99.90
31799;DHT22;18374;51.136;3.502;2023-03-01T17:13:03;5.10;99.90
31799;DHT22;18374;51.136;3.502;2023-03-01T17:15:31;5.00;99.90
31799;DHT22;18374;51.136;3.502;2023-03-01T17:17:58;4.90;99.90
31799;DHT22;18374;51.136;3.502;2023-03-01T17:20:26;4.90;99.90
31799;DHT22;18374;51.136;3.502;2023-03-01T17:22:54;4.80;99.90
31799;DHT22;18374;51.136;3.502;2023-03-01T17:25:22;4.70;99.90
31799;DHT22;18374;51.136;3.502;2023-03-01T17:27:49;4.70;99.90
31799;DHT22;18374;51.136;3.502;2023-03-01T17:30:17;4.70;99.90
31799;DHT22;18374;51.136;3.502;2023-03-01T17:32:45;4.60;99.90
31799;DHT22;18374;51.136;3.502;2023-03-01T17:35:13;4.50;99.90
31799;DHT22;18374;51.136;3.502;2023-03-01T17:37:41;4.40;99.90
31799;DHT22;18374;51.136;3.502;2023-03-01T17:40:12;4.40;99.90
31799;DHT22;18374;51.136;3.502;2023-03-01T17:42:40;4.30;99.90
31799;DHT22;18374;51.136;3.502;2023-03-01T17:45:08;4.30;99.90
31799;DHT22;18374;51.136;3.502;2023-03-01T17:47:37;4.20;99.90
31799;DHT22;18374;51.136;3.502;2023-03-01T17:50:05;4.10;99.90
31799;DHT22;18374;51.136;3.502;2023-03-01T17:52:34;4.00;99.90
31799;DHT22;18374;51.136;3.502;2023-03-01T17:55:02;4.00;99.90
31799;DHT22;18374;51.136;3.502;2023-03-01T17:57:31;4.00;99.90
31799;DHT22;18374;51.136;3.502;2023-03-01T17:59:59;3.90;99.90
31799;DHT22;18374;51.136;3.502;2023-03-01T18:02:27;3.80;99.90
31799;DHT22;18374;51.136;3.502;2023-03-01T18:04:57;3.70;99.90
31799;DHT22;18374;51.136;3.502;2023-03-01T18:07:28;3.70;99.90
31799;DHT22;18374;51.136;3.502;2023-03-01T18:09:55;3.70;99.90
31799;DHT22;18374;51.136;3.502;2023-03-01T18:12:23;3.70;99.90
31799;DHT22;18374;51.136;3.502;2023-03-01T18:14:51;3.50;99.90
31799;DHT22;18374;51.136;3.502;2023-03-01T18:17:20;3.50;99.90
31799;DHT22;18374;51.136;3.502;2023-03-01T18:19:50;3.50;99.90
31799;DHT22;18374;51.136;3.502;2023-03-01T18:22:18;3.40;99.90
31799;DHT22;18374;51.136;3.502;2023-03-01T18:24:46;3.50;99.90
31799;DHT22;18374;51.136;3.502;2023-03-01T18:27:14;3.40;99.90
31799;DHT22;18374;51.136;3.502;2023-03-01T18:29:42;3.40;99.90
31799;DHT22;18374;51.136;3.502;2023-03-01T18:32:10;3.40;99.90